sensor_id;sensor_type;location;lat;lon;timestamp;pressure;altitude;pressure_sealevel;temperature;humidity
59289;BME280;45056;47.602;9.886;2023-11-21T00:01:21;92463.03;;;9.59;55.71
59289;BME280;45056;47.602;9.886;2023-11-21T00:03:49;92457.28;;;9.57;55.88
59289;BME280;45056;47.602;9.886;2023-11-21T00:06:21;92456.53;;;9.57;55.94
59289;BME280;45056;47.602;9.886;2023-11-21T00:08:49;92453.53;;;9.55;56.08
59289;BME280;45056;47.602;9.886;2023-11-21T00:11:18;92453.97;;;9.53;56.39
59289;BME280;45056;47.602;9.886;2023-11-21T00:13:46;92451.25;;;9.53;56.79
59289;BME280;45056;47.602;9.886;2023-11-21T00:16:14;92447.78;;;9.52;57.08
59289;BME280;45056;47.602;9.886;2023-11-21T00:18:42;92444.28;;;9.52;57.34
59289;BME280;45056;47.602;9.886;2023-11-21T00:21:10;92449.41;;;9.50;57.33
59289;BME280;45056;47.602;9.886;2023-11-21T00:23:39;92441.28;;;9.50;57.18
59289;BME280;45056;47.602;9.886;2023-11-21T00:26:07;92439.75;;;9.49;57.07
59289;BME280;45056;47.602;9.886;2023-11-21T00:28:36;92439.75;;;9.49;56.98
59289;BME280;45056;47.602;9.886;2023-11-21T00:31:05;92436.75;;;9.47;56.96
59289;BME280;45056;47.602;9.886;2023-11-21T00:33:33;92439.00;;;9.48;57.15
59289;BME280;45056;47.602;9.886;2023-11-21T00:36:01;92436.75;;;9.47;56.81
59289;BME280;45056;47.602;9.886;2023-11-21T00:38:29;92431.31;;;9.47;56.92
59289;BME280;45056;47.602;9.886;2023-11-21T00:40:57;92442.16;;;9.47;56.94
59289;BME280;45056;47.602;9.886;2023-11-21T00:43:25;92449.53;;;9.46;57.17
59289;BME280;45056;47.602;9.886;2023-11-21T00:45:54;92452.56;;;9.48;57.13
59289;BME280;45056;47.602;9.886;2023-11-21T00:48:22;92444.56;;;9.45;57.38
59289;BME280;45056;47.602;9.886;2023-11-21T00:50:50;92435.97;;;9.46;57.42
59289;BME280;45056;47.602;9.886;2023-11-21T00:53:18;92439.16;;;9.45;57.58
59289;BME280;45056;47.602;9.886;2023-11-21T00:55:46;92435.34;;;9.42;57.71
59289;BME280;45056;47.602;9.886;2023-11-21T00:58:14;92427.66;;;9.41;57.89
59289;BME280;45056;47.602;9.886;2023-11-21T01:00:42;92431.59;;;9.40;57.84
59289;BME280;45056;47.602;9.886;2023-11-21T01:03:11;92440.94;;;9.38;57.69
59289;BME280;45056;47.602;9.886;2023-11-21T01:05:39;92441.38;;;9.37;57.54
59289;BME280;45056;47.602;9.886;2023-11-21T01:08:07;92439.41;;;9.37;57.69
59289;BME280;45056;47.602;9.886;2023-11-21T01:10:35;92439.41;;;9.37;57.68
59289;BME280;45056;47.602;9.886;2023-11-21T01:13:04;92434.31;;;9.40;57.78
59289;BME280;45056;47.602;9.886;2023-11-21T01:15:33;92439.72;;;9.40;57.77
59289;BME280;45056;47.602;9.886;2023-11-21T01:18:02;92435.50;;;9.38;57.94
59289;BME280;45056;47.602;9.886;2023-11-21T01:20:31;92427.34;;;9.38;58.01
59289;BME280;45056;47.602;9.886;2023-11-21T01:23:00;92430.06;;;9.38;57.87
59289;BME280;45056;47.602;9.886;2023-11-21T01:25:28;92426.16;;;9.40;57.86
59289;BME280;45056;47.602;9.886;2023-11-21T01:27:56;92419.22;;;9.38;57.64
59289;BME280;45056;47.602;9.886;2023-11-21T01:30:24;92417.69;;;9.37;57.52
59289;BME280;45056;47.602;9.886;2023-11-21T01:32:52;92418.44;;;9.38;57.61
59289;BME280;45056;47.602;9.886;2023-11-21T01:35:20;92421.63;;;9.36;57.81
59289;BME280;45056;47.602;9.886;2023-11-21T01:37:49;92410.75;;;9.36;57.90
59289;BME280;45056;47.602;9.886;2023-11-21T01:40:17;92408.47;;;9.35;58.01
59289;BME280;45056;47.602;9.886;2023-11-21T01:42:45;92411.19;;;9.35;58.11
59289;BME280;45056;47.602;9.886;2023-11-21T01:45:14;92414.66;;;9.35;58.32
59289;BME280;45056;47.602;9.886;2023-11-21T01:47:44;92410.44;;;9.34;58.16
59289;BME280;45056;47.602;9.886;2023-11-21T01:50:15;92413.13;;;9.34;58.38
59289;BME280;45056;47.602;9.886;2023-11-21T01:52:46;92417.38;;;9.35;58.42
59289;BME280;45056;47.602;9.886;2023-11-21T01:55:17;92420.09;;;9.35;58.52
59289;BME280;45056;47.602;9.886;2023-11-21T01:57:47;92409.22;;;9.35;58.56
59289;BME280;45056;47.602;9.886;2023-11-21T02:00:16;92416.63;;;9.35;58.79
59289;BME280;45056;47.602;9.886;2023-11-21T02:02:47;92418.56;;;9.34;59.36
59289;BME280;45056;47.602;9.886;2023-11-21T02:05:17;92420.22;;;9.32;59.64
59289;BME280;45056;47.602;9.886;2023-11-21T02:07:46;92408.28;;;9.29;60.02
59289;BME280;45056;47.602;9.886;2023-11-21T02:10:16;92422.75;;;9.26;60.08
59289;BME280;45056;47.602;9.886;2023-11-21T02:12:49;92412.81;;;9.23;60.27
59289;BME280;45056;47.602;9.886;2023-11-21T02:15:18;92422.16;;;9.22;60.48
59289;BME280;45056;47.602;9.886;2023-11-21T02:17:48;92405.13;;;9.21;60.72
59289;BME280;45056;47.602;9.886;2023-11-21T02:20:18;92407.50;;;9.19;60.79
59289;BME280;45056;47.602;9.886;2023-11-21T02:22:50;92413.81;;;9.16;60.93
59289;BME280;45056;47.602;9.886;2023-11-21T02:25:24;92409.28;;;9.13;61.37
59289;BME280;45056;47.602;9.886;2023-11-21T02:27:52;92411.38;;;9.09;61.25
59289;BME280;45056;47.602;9.886;2023-11-21T02:30:21;92419.31;;;9.03;61.47
59289;BME280;45056;47.602;9.886;2023-11-21T02:32:51;92421.72;;;9.01;61.30
59289;BME280;45056;47.602;9.886;2023-11-21T02:35:21;92421.41;;;8.99;60.94
59289;BME280;45056;47.602;9.886;2023-11-21T02:37:50;92416.56;;;8.94;60.89
59289;BME280;45056;47.602;9.886;2023-11-21T02:40:18;92402.38;;;8.90;60.92
59289;BME280;45056;47.602;9.886;2023-11-21T02:42:47;92389.41;;;8.85;61.00
59289;BME280;45056;47.602;9.886;2023-11-21T02:45:19;92394.94;;;8.81;61.22
59289;BME280;45056;47.602;9.886;2023-11-21T02:47:48;92392.38;;;8.77;61.56
59289;BME280;45056;47.602;9.886;2023-11-21T02:50:16;92398.69;;;8.74;61.39
59289;BME280;45056;47.602;9.886;2023-11-21T02:52:45;92391.41;;;8.71;61.29
59289;BME280;45056;47.602;9.886;2023-11-21T02:55:15;92391.09;;;8.69;61.28
59289;BME280;45056;47.602;9.886;2023-11-21T02:57:43;92393.06;;;8.69;61.58
59289;BME280;45056;47.602;9.886;2023-11-21T03:00:11;92388.06;;;8.67;61.67
59289;BME280;45056;47.602;9.886;2023-11-21T03:02:41;92383.09;;;8.65;61.89
59289;BME280;45056;47.602;9.886;2023-11-21T03:05:10;92391.25;;;8.65;62.02
59289;BME280;45056;47.602;9.886;2023-11-21T03:07:38;92392.75;;;8.66;62.04
59289;BME280;45056;47.602;9.886;2023-11-21T03:10:07;92386.88;;;8.68;62.37
59289;BME280;45056;47.602;9.886;2023-11-21T03:12:39;92396.22;;;8.67;62.67
59289;BME280;45056;47.602;9.886;2023-11-21T03:15:08;92394.69;;;8.66;62.81
59289;BME280;45056;47.602;9.886;2023-11-21T03:17:36;92390.47;;;8.65;63.10
59289;BME280;45056;47.602;9.886;2023-11-21T03:20:05;92381.59;;;8.64;63.05
59289;BME280;45056;47.602;9.886;2023-11-21T03:22:37;92390.16;;;8.63;63.21
59289;BME280;45056;47.602;9.886;2023-11-21T03:25:05;92386.41;;;8.60;63.31
59289;BME280;45056;47.602;9.886;2023-11-21T03:27:37;92392.56;;;8.61;63.34
59289;BME280;45056;47.602;9.886;2023-11-21T03:30:09;92390.31;;;8.59;63.46
59289;BME280;45056;47.602;9.886;2023-11-21T03:32:38;92382.59;;;8.58;63.85
59289;BME280;45056;47.602;9.886;2023-11-21T03:35:07;92393.75;;;8.60;64.02
59289;BME280;45056;47.602;9.886;2023-11-21T03:37:35;92394.97;;;8.59;64.31
59289;BME280;45056;47.602;9.886;2023-11-21T03:40:06;92397.97;;;8.61;64.35
59289;BME280;45056;47.602;9.886;2023-11-21T03:42:35;92401.00;;;8.63;64.36
59289;BME280;45056;47.602;9.886;2023-11-21T03:45:06;92399.06;;;8.63;64.55
59289;BME280;45056;47.602;9.886;2023-11-21T03:47:35;92406.44;;;8.63;64.68
59289;BME280;45056;47.602;9.886;2023-11-21T03:50:03;92411.22;;;8.59;64.76
59289;BME280;45056;47.602;9.886;2023-11-21T03:52:32;92410.16;;;8.56;64.99
59289;BME280;45056;47.602;9.886;2023-11-21T03:55:00;92402.00;;;8.56;65.05
59289;BME280;45056;47.602;9.886;2023-11-21T03:57:29;92402.78;;;8.57;65.10
59289;BME280;45056;47.602;9.886;2023-11-21T03:59:57;92400.81;;;8.57;65.09
59289;BME280;45056;47.602;9.886;2023-11-21T04:02:26;92401.56;;;8.58;65.34
59289;BME280;45056;47.602;9.886;2023-11-21T04:04:54;92402.78;;;8.57;65.27
59289;BME280;45056;47.602;9.886;2023-11-21T04:07:23;92405.19;;;8.55;65.12
59289;BME280;45056;47.602;9.886;2023-11-21T04:09:51;92405.28;;;8.51;65.22
59289;BME280;45056;47.602;9.886;2023-11-21T04:12:20;92417.75;;;8.48;65.16
59289;BME280;45056;47.602;9.886;2023-11-21T04:14:48;92408.53;;;8.46;65.13
59289;BME280;45056;47.602;9.886;2023-11-21T04:17:18;92412.13;;;8.43;65.11
59289;BME280;45056;47.602;9.886;2023-11-21T04:19:47;92423.41;;;8.41;65.00
59289;BME280;45056;47.602;9.886;2023-11-21T04:22:15;92421.16;;;8.40;65.17
59289;BME280;45056;47.602;9.886;2023-11-21T04:24:44;92425.06;;;8.38;65.47
59289;BME280;45056;47.602;9.886;2023-11-21T04:27:12;92418.56;;;8.36;65.91
59289;BME280;45056;47.602;9.886;2023-11-21T04:29:40;92418.38;;;8.30;66.21
59289;BME280;45056;47.602;9.886;2023-11-21T04:32:08;92416.97;;;8.26;66.65
59289;BME280;45056;47.602;9.886;2023-11-21T04:34:37;92421.75;;;8.21;66.77
59289;BME280;45056;47.602;9.886;2023-11-21T04:37:06;92411.81;;;8.18;67.07
59289;BME280;45056;47.602;9.886;2023-11-21T04:39:36;92410.28;;;8.17;67.22
59289;BME280;45056;47.602;9.886;2023-11-21T04:42:04;92402.16;;;8.17;67.42
59289;BME280;45056;47.602;9.886;2023-11-21T04:44:32;92399.88;;;8.16;67.25
59289;BME280;45056;47.602;9.886;2023-11-21T04:47:00;92411.16;;;8.14;67.31
59289;BME280;45056;47.602;9.886;2023-11-21T04:49:31;92406.19;;;8.13;67.35
59289;BME280;45056;47.602;9.886;2023-11-21T04:51:59;92404.66;;;8.12;67.45
59289;BME280;45056;47.602;9.886;2023-11-21T04:54:30;92406.59;;;8.11;67.37
59289;BME280;45056;47.602;9.886;2023-11-21T04:56:58;92408.56;;;8.11;67.50
59289;BME280;45056;47.602;9.886;2023-11-21T04:59:27;92407.38;;;8.12;67.55
59289;BME280;45056;47.602;9.886;2023-11-21T05:01:55;92411.59;;;8.13;67.43
59289;BME280;45056;47.602;9.886;2023-11-21T05:04:23;92411.16;;;8.14;67.24
59289;BME280;45056;47.602;9.886;2023-11-21T05:06:51;92414.19;;;8.16;67.31
59289;BME280;45056;47.602;9.886;2023-11-21T05:09:19;92409.97;;;8.15;67.56
59289;BME280;45056;47.602;9.886;2023-11-21T05:11:50;92411.91;;;8.15;67.53
59289;BME280;45056;47.602;9.886;2023-11-21T05:14:19;92424.41;;;8.12;67.19
59289;BME280;45056;47.602;9.886;2023-11-21T05:16:47;92418.63;;;8.10;67.39
59289;BME280;45056;47.602;9.886;2023-11-21T05:19:17;92416.81;;;8.07;67.16
59289;BME280;45056;47.602;9.886;2023-11-21T05:21:45;92419.66;;;8.03;67.39
59289;BME280;45056;47.602;9.886;2023-11-21T05:24:13;92418.56;;;8.01;67.51
59289;BME280;45056;47.602;9.886;2023-11-21T05:26:42;92417.06;;;8.00;67.71
59289;BME280;45056;47.602;9.886;2023-11-21T05:29:11;92429.09;;;7.99;67.86
59289;BME280;45056;47.602;9.886;2023-11-21T05:31:39;92422.16;;;7.98;67.85
59289;BME280;45056;47.602;9.886;2023-11-21T05:34:07;92424.84;;;7.98;67.86
59289;BME280;45056;47.602;9.886;2023-11-21T05:36:35;92422.59;;;7.96;67.85
59289;BME280;45056;47.602;9.886;2023-11-21T05:39:03;92414.13;;;7.94;67.80
59289;BME280;45056;47.602;9.886;2023-11-21T05:41:31;92421.50;;;7.93;67.88
59289;BME280;45056;47.602;9.886;2023-11-21T05:43:59;92423.03;;;7.94;67.88
59289;BME280;45056;47.602;9.886;2023-11-21T05:46:29;92421.84;;;7.96;67.85
59289;BME280;45056;47.602;9.886;2023-11-21T05:48:57;92425.31;;;7.96;67.85
59289;BME280;45056;47.602;9.886;2023-11-21T05:51:25;92430.72;;;7.96;67.89
59289;BME280;45056;47.602;9.886;2023-11-21T05:53:53;92427.25;;;7.96;67.85
59289;BME280;45056;47.602;9.886;2023-11-21T05:56:21;92424.22;;;7.93;67.92
59289;BME280;45056;47.602;9.886;2023-11-21T05:58:49;92430.38;;;7.94;67.92
59289;BME280;45056;47.602;9.886;2023-11-21T06:01:17;92425.41;;;7.92;68.13
59289;BME280;45056;47.602;9.886;2023-11-21T06:03:46;92427.03;;;7.90;67.96
59289;BME280;45056;47.602;9.886;2023-11-21T06:06:15;92426.72;;;7.88;68.10
59289;BME280;45056;47.602;9.886;2023-11-21T06:08:43;92434.09;;;7.87;68.11
59289;BME280;45056;47.602;9.886;2023-11-21T06:11:11;92434.09;;;7.87;68.15
59289;BME280;45056;47.602;9.886;2023-11-21T06:13:39;92436.81;;;7.87;68.31
59289;BME280;45056;47.602;9.886;2023-11-21T06:16:07;92438.00;;;7.86;68.48
59289;BME280;45056;47.602;9.886;2023-11-21T06:18:36;92448.38;;;7.88;68.39
59289;BME280;45056;47.602;9.886;2023-11-21T06:21:06;92440.72;;;7.86;68.23
59289;BME280;45056;47.602;9.886;2023-11-21T06:23:37;92440.25;;;7.88;68.25
59289;BME280;45056;47.602;9.886;2023-11-21T06:26:05;92446.75;;;7.90;68.18
59289;BME280;45056;47.602;9.886;2023-11-21T06:28:34;92446.63;;;7.94;68.01
59289;BME280;45056;47.602;9.886;2023-11-21T06:31:04;92448.91;;;7.96;67.87
59289;BME280;45056;47.602;9.886;2023-11-21T06:33:34;92452.06;;;7.94;68.09
59289;BME280;45056;47.602;9.886;2023-11-21T06:36:02;92447.81;;;7.93;68.20
59289;BME280;45056;47.602;9.886;2023-11-21T06:38:33;92449.03;;;7.92;68.51
59289;BME280;45056;47.602;9.886;2023-11-21T06:41:01;92453.69;;;7.91;68.31
59289;BME280;45056;47.602;9.886;2023-11-21T06:43:30;92452.19;;;7.90;68.02
59289;BME280;45056;47.602;9.886;2023-11-21T06:45:58;92460.41;;;7.87;68.23
59289;BME280;45056;47.602;9.886;2023-11-21T06:48:26;92458.16;;;7.85;68.13
59289;BME280;45056;47.602;9.886;2023-11-21T06:50:56;92453.94;;;7.84;68.19
59289;BME280;45056;47.602;9.886;2023-11-21T06:53:24;92458.91;;;7.86;68.26
59289;BME280;45056;47.602;9.886;2023-11-21T06:55:53;92460.00;;;7.88;68.29
59289;BME280;45056;47.602;9.886;2023-11-21T06:58:21;92459.22;;;7.88;68.26
59289;BME280;45056;47.602;9.886;2023-11-21T07:00:49;92459.13;;;7.91;68.18
59289;BME280;45056;47.602;9.886;2023-11-21T07:03:19;92464.84;;;7.93;68.06
59289;BME280;45056;47.602;9.886;2023-11-21T07:05:46;92471.78;;;7.94;68.03
59289;BME280;45056;47.602;9.886;2023-11-21T07:08:14;92470.59;;;7.96;68.01
59289;BME280;45056;47.602;9.886;2023-11-21T07:10:42;92472.09;;;7.97;67.99
59289;BME280;45056;47.602;9.886;2023-11-21T07:13:12;92472.44;;;7.99;68.08
59289;BME280;45056;47.602;9.886;2023-11-21T07:15:40;92472.44;;;7.99;67.94
59289;BME280;45056;47.602;9.886;2023-11-21T07:18:08;92471.69;;;7.98;68.00
59289;BME280;45056;47.602;9.886;2023-11-21T07:20:36;92470.91;;;7.98;67.95
59289;BME280;45056;47.602;9.886;2023-11-21T07:23:04;92470.16;;;7.97;67.56
59289;BME280;45056;47.602;9.886;2023-11-21T07:25:32;92467.56;;;7.93;67.25
59289;BME280;45056;47.602;9.886;2023-11-21T07:28:01;92476.09;;;7.92;67.46
59289;BME280;45056;47.602;9.886;2023-11-21T07:30:33;92476.56;;;7.90;67.29
59289;BME280;45056;47.602;9.886;2023-11-21T07:33:01;92480.00;;;7.91;67.50
59289;BME280;45056;47.602;9.886;2023-11-21T07:35:29;92481.97;;;7.90;67.29
59289;BME280;45056;47.602;9.886;2023-11-21T07:37:57;92476.25;;;7.88;67.37
59289;BME280;45056;47.602;9.886;2023-11-21T07:40:25;92480.88;;;7.88;67.19
59289;BME280;45056;47.602;9.886;2023-11-21T07:42:54;92480.16;;;7.87;67.29
59289;BME280;45056;47.602;9.886;2023-11-21T07:45:23;92476.97;;;7.89;67.06
59289;BME280;45056;47.602;9.886;2023-11-21T07:47:55;92479.69;;;7.89;67.11
59289;BME280;45056;47.602;9.886;2023-11-21T07:50:23;92481.97;;;7.90;67.33
59289;BME280;45056;47.602;9.886;2023-11-21T07:52:53;92479.28;;;7.90;67.54
59289;BME280;45056;47.602;9.886;2023-11-21T07:55:21;92492.69;;;7.94;67.58
59289;BME280;45056;47.602;9.886;2023-11-21T07:57:49;92488.47;;;7.93;67.44
59289;BME280;45056;47.602;9.886;2023-11-21T08:00:18;92495.84;;;7.92;67.43
59289;BME280;45056;47.602;9.886;2023-11-21T08:02:47;92484.69;;;7.90;67.50
59289;BME280;45056;47.602;9.886;2023-11-21T08:05:17;92491.63;;;7.91;67.69
59289;BME280;45056;47.602;9.886;2023-11-21T08:07:45;92489.22;;;7.93;67.75
59289;BME280;45056;47.602;9.886;2023-11-21T08:10:13;92495.84;;;7.92;67.74
59289;BME280;45056;47.602;9.886;2023-11-21T08:12:41;92498.88;;;7.94;67.92
59289;BME280;45056;47.602;9.886;2023-11-21T08:15:09;92500.81;;;7.94;68.05
59289;BME280;45056;47.602;9.886;2023-11-21T08:17:37;92505.81;;;7.96;68.18
59289;BME280;45056;47.602;9.886;2023-11-21T08:20:06;92500.38;;;7.96;68.06
59289;BME280;45056;47.602;9.886;2023-11-21T08:22:36;92501.59;;;7.94;67.74
59289;BME280;45056;47.602;9.886;2023-11-21T08:25:07;92498.88;;;7.94;67.75
59289;BME280;45056;47.602;9.886;2023-11-21T08:27:36;92504.28;;;7.94;67.82
59289;BME280;45056;47.602;9.886;2023-11-21T08:30:11;92494.19;;;7.95;67.90
59289;BME280;45056;47.602;9.886;2023-11-21T08:32:40;92493.13;;;7.92;67.88
59289;BME280;45056;47.602;9.886;2023-11-21T08:35:08;92507.75;;;7.95;68.03
59289;BME280;45056;47.602;9.886;2023-11-21T08:37:38;92497.69;;;7.96;68.06
59289;BME280;45056;47.602;9.886;2023-11-21T08:40:07;92498.00;;;7.98;67.88
59289;BME280;45056;47.602;9.886;2023-11-21T08:42:38;92502.22;;;7.99;67.94
59289;BME280;45056;47.602;9.886;2023-11-21T08:45:07;92510.69;;;8.01;68.09
59289;BME280;45056;47.602;9.886;2023-11-21T08:47:36;92503.75;;;8.00;68.01
59289;BME280;45056;47.602;9.886;2023-11-21T08:50:05;92509.16;;;8.00;67.97
59289;BME280;45056;47.602;9.886;2023-11-21T08:52:34;92513.84;;;7.99;68.24
59289;BME280;45056;47.602;9.886;2023-11-21T08:55:05;92514.56;;;8.00;68.33
59289;BME280;45056;47.602;9.886;2023-11-21T08:57:35;92515.03;;;7.98;68.33
59289;BME280;45056;47.602;9.886;2023-11-21T09:00:04;92510.03;;;7.97;68.09
59289;BME280;45056;47.602;9.886;2023-11-21T09:02:37;92505.38;;;7.97;67.99
59289;BME280;45056;47.602;9.886;2023-11-21T09:05:05;92506.91;;;7.98;68.17
59289;BME280;45056;47.602;9.886;2023-11-21T09:07:35;92508.41;;;7.99;68.18
59289;BME280;45056;47.602;9.886;2023-11-21T09:10:06;92511.13;;;7.99;68.06
59289;BME280;45056;47.602;9.886;2023-11-21T09:12:36;92501.03;;;8.00;68.05
59289;BME280;45056;47.602;9.886;2023-11-21T09:15:07;92514.16;;;8.01;68.01
59289;BME280;45056;47.602;9.886;2023-11-21T09:17:37;92523.03;;;8.02;67.78
59289;BME280;45056;47.602;9.886;2023-11-21T09:20:07;92532.66;;;8.03;67.86
59289;BME280;45056;47.602;9.886;2023-11-21T09:22:36;92524.53;;;8.03;67.69
59289;BME280;45056;47.602;9.886;2023-11-21T09:25:07;92531.47;;;8.04;67.62
59289;BME280;45056;47.602;9.886;2023-11-21T09:27:35;92533.44;;;8.03;67.62
59289;BME280;45056;47.602;9.886;2023-11-21T09:30:05;92536.56;;;8.02;67.43
59289;BME280;45056;47.602;9.886;2023-11-21T09:32:36;92544.69;;;8.02;67.42
59289;BME280;45056;47.602;9.886;2023-11-21T09:35:07;92540.47;;;8.01;67.44
59289;BME280;45056;47.602;9.886;2023-11-21T09:37:35;92543.97;;;8.01;67.40
59289;BME280;45056;47.602;9.886;2023-11-21T09:40:10;92538.88;;;8.03;67.40
59289;BME280;45056;47.602;9.886;2023-11-21T09:42:45;92539.59;;;8.04;67.14
59289;BME280;45056;47.602;9.886;2023-11-21T09:45:23;92538.41;;;8.05;67.31
59289;BME280;45056;47.602;9.886;2023-11-21T09:47:54;92537.22;;;8.06;67.39
59289;BME280;45056;47.602;9.886;2023-11-21T09:50:23;92529.41;;;8.08;67.65
59289;BME280;45056;47.602;9.886;2023-11-21T09:52:58;92542.84;;;8.12;67.70
59289;BME280;45056;47.602;9.886;2023-11-21T09:55:42;92535.81;;;8.14;67.57
59289;BME280;45056;47.602;9.886;2023-11-21T09:58:13;92537.66;;;8.17;67.52
59289;BME280;45056;47.602;9.886;2023-11-21T10:00:43;92541.44;;;8.20;67.36
59289;BME280;45056;47.602;9.886;2023-11-21T10:03:14;92541.22;;;8.27;67.69
59289;BME280;45056;47.602;9.886;2023-11-21T10:05:44;92542.94;;;8.34;67.60
59289;BME280;45056;47.602;9.886;2023-11-21T10:08:13;92537.72;;;8.40;67.80
59289;BME280;45056;47.602;9.886;2023-11-21T10:10:45;92542.59;;;8.45;67.82
59289;BME280;45056;47.602;9.886;2023-11-21T10:13:18;92536.41;;;8.44;67.68
59289;BME280;45056;47.602;9.886;2023-11-21T10:15:49;92535.66;;;8.44;67.39
59289;BME280;45056;47.602;9.886;2023-11-21T10:18:19;92537.63;;;8.43;67.33
59289;BME280;45056;47.602;9.886;2023-11-21T10:20:49;92536.06;;;8.42;67.48
59289;BME280;45056;47.602;9.886;2023-11-21T10:23:20;92537.72;;;8.40;67.52
59289;BME280;45056;47.602;9.886;2023-11-21T10:25:50;92535.00;;;8.40;67.76
59289;BME280;45056;47.602;9.886;2023-11-21T10:28:18;92536.94;;;8.39;67.90
59289;BME280;45056;47.602;9.886;2023-11-21T10:30:47;92538.16;;;8.38;67.86
59289;BME280;45056;47.602;9.886;2023-11-21T10:33:15;92533.91;;;8.37;68.14
59289;BME280;45056;47.602;9.886;2023-11-21T10:35:43;92525.78;;;8.37;68.05
59289;BME280;45056;47.602;9.886;2023-11-21T10:38:17;92521.56;;;8.36;67.90
59289;BME280;45056;47.602;9.886;2023-11-21T10:40:47;92531.66;;;8.35;67.43
59289;BME280;45056;47.602;9.886;2023-11-21T10:43:17;92528.19;;;8.35;67.59
59289;BME280;45056;47.602;9.886;2023-11-21T10:45:46;92523.84;;;8.37;67.34
59289;BME280;45056;47.602;9.886;2023-11-21T10:48:15;92530.47;;;8.36;67.30
59289;BME280;45056;47.602;9.886;2023-11-21T10:50:45;92528.19;;;8.35;67.42
59289;BME280;45056;47.602;9.886;2023-11-21T10:53:15;92522.44;;;8.33;67.42
59289;BME280;45056;47.602;9.886;2023-11-21T10:55:43;92528.19;;;8.35;67.52
59289;BME280;45056;47.602;9.886;2023-11-21T10:58:14;92522.75;;;8.35;67.81
59289;BME280;45056;47.602;9.886;2023-11-21T11:00:43;92514.19;;;8.36;67.72
59289;BME280;45056;47.602;9.886;2023-11-21T11:03:13;92519.50;;;8.40;67.22
59289;BME280;45056;47.602;9.886;2023-11-21T11:05:43;92515.94;;;8.43;67.51
59289;BME280;45056;47.602;9.886;2023-11-21T11:08:21;92522.41;;;8.46;67.59
59289;BME280;45056;47.602;9.886;2023-11-21T11:10:53;92520.78;;;8.48;67.71
59289;BME280;45056;47.602;9.886;2023-11-21T11:13:23;92519.06;;;8.55;67.64
59289;BME280;45056;47.602;9.886;2023-11-21T11:15:58;92517.31;;;8.61;67.51
59289;BME280;45056;47.602;9.886;2023-11-21T11:18:28;92519.91;;;8.64;67.43
59289;BME280;45056;47.602;9.886;2023-11-21T11:21:07;92522.47;;;8.68;67.33
59289;BME280;45056;47.602;9.886;2023-11-21T11:23:53;92526.28;;;8.71;67.08
59289;BME280;45056;47.602;9.886;2023-11-21T11:26:47;92515.63;;;8.76;66.95
59289;BME280;45056;47.602;9.886;2023-11-21T11:29:33;92522.00;;;8.83;66.98
59289;BME280;45056;47.602;9.886;2023-11-21T11:32:17;92521.13;;;8.86;66.73
59289;BME280;45056;47.602;9.886;2023-11-21T11:35:03;92519.03;;;8.90;66.64
59289;BME280;45056;47.602;9.886;2023-11-21T11:37:38;92512.72;;;8.93;66.66
59289;BME280;45056;47.602;9.886;2023-11-21T11:40:07;92512.31;;;8.94;66.43
59289;BME280;45056;47.602;9.886;2023-11-21T11:42:38;92517.72;;;8.94;66.21
59289;BME280;45056;47.602;9.886;2023-11-21T11:45:18;92520.88;;;8.93;66.23
59289;BME280;45056;47.602;9.886;2023-11-21T11:47:47;92523.28;;;8.91;66.03
59289;BME280;45056;47.602;9.886;2023-11-21T11:50:17;92524.91;;;8.88;65.85
59289;BME280;45056;47.602;9.886;2023-11-21T11:52:48;92524.16;;;8.88;65.81
59289;BME280;45056;47.602;9.886;2023-11-21T11:55:18;92520.25;;;8.89;66.10
59289;BME280;45056;47.602;9.886;2023-11-21T11:57:49;92528.25;;;8.92;66.32
59289;BME280;45056;47.602;9.886;2023-11-21T12:00:34;92524.66;;;8.95;66.23
59289;BME280;45056;47.602;9.886;2023-11-21T12:03:07;92522.69;;;8.96;66.02
59289;BME280;45056;47.602;9.886;2023-11-21T12:05:36;92518.78;;;8.97;66.10
59289;BME280;45056;47.602;9.886;2023-11-21T12:08:07;92518.34;;;8.99;66.21
59289;BME280;45056;47.602;9.886;2023-11-21T12:10:36;92514.44;;;9.00;66.09
59289;BME280;45056;47.602;9.886;2023-11-21T12:13:08;92512.78;;;9.02;66.32
59289;BME280;45056;47.602;9.886;2023-11-21T12:15:40;92520.38;;;9.07;66.63
59289;BME280;45056;47.602;9.886;2023-11-21T12:18:09;92514.06;;;9.11;66.57
59289;BME280;45056;47.602;9.886;2023-11-21T12:20:37;92511.22;;;9.14;66.51
59289;BME280;45056;47.602;9.886;2023-11-21T12:23:07;92521.19;;;9.17;66.28
59289;BME280;45056;47.602;9.886;2023-11-21T12:25:37;92523.47;;;9.19;65.79
59289;BME280;45056;47.602;9.886;2023-11-21T12:28:06;92520.75;;;9.19;65.50
59289;BME280;45056;47.602;9.886;2023-11-21T12:30:35;92514.44;;;9.22;65.75
59289;BME280;45056;47.602;9.886;2023-11-21T12:33:05;92516.56;;;9.27;66.04
59289;BME280;45056;47.602;9.886;2023-11-21T12:35:35;92524.13;;;9.32;65.79
59289;BME280;45056;47.602;9.886;2023-11-21T12:38:04;92518.47;;;9.40;65.51
59289;BME280;45056;47.602;9.886;2023-11-21T12:40:33;92517.13;;;9.44;64.99
59289;BME280;45056;47.602;9.886;2023-11-21T12:43:01;92521.66;;;9.47;64.69
59289;BME280;45056;47.602;9.886;2023-11-21T12:45:30;92523.94;;;9.49;64.33
59289;BME280;45056;47.602;9.886;2023-11-21T12:48:01;92535.13;;;9.51;64.25
59289;BME280;45056;47.602;9.886;2023-11-21T12:50:35;92530.88;;;9.50;63.90
59289;BME280;45056;47.602;9.886;2023-11-21T12:53:05;92531.31;;;9.48;63.87
59289;BME280;45056;47.602;9.886;2023-11-21T12:55:36;92532.97;;;9.46;64.29
59289;BME280;45056;47.602;9.886;2023-11-21T12:58:06;92528.75;;;9.45;63.74
59289;BME280;45056;47.602;9.886;2023-11-21T13:00:38;92521.81;;;9.44;63.81
59289;BME280;45056;47.602;9.886;2023-11-21T13:03:10;92525.72;;;9.43;63.89
59289;BME280;45056;47.602;9.886;2023-11-21T13:05:46;92524.53;;;9.44;63.82
59289;BME280;45056;47.602;9.886;2023-11-21T13:08:17;92530.69;;;9.44;63.72
59289;BME280;45056;47.602;9.886;2023-11-21T13:10:49;92531.16;;;9.43;63.75
59289;BME280;45056;47.602;9.886;2023-11-21T13:13:20;92527.03;;;9.38;63.69
59289;BME280;45056;47.602;9.886;2023-11-21T13:15:50;92536.81;;;9.35;64.07
59289;BME280;45056;47.602;9.886;2023-11-21T13:18:20;92531.84;;;9.34;64.00
59289;BME280;45056;47.602;9.886;2023-11-21T13:20:52;92529.13;;;9.34;64.03
59289;BME280;45056;47.602;9.886;2023-11-21T13:23:21;92540.00;;;9.34;63.94